Time;durP1;ratioP1;P1;durP2;ratioP2;P2;SDS_P1;SDS_P2;PMS_P1;PMS_P2;Temp;Humidity;BMP_temperature;BMP_pressure;BME280_temperature;BME280_humidity;BME280_pressure;Samples;Min_cycle;Max_cycle;Signal;HPM_P1;HPM_P2
2023/05/16 00:00:08;;;;;;;17.33;13.77;;;;;;;;;;5053046;28;20037;-87
2023/05/16 00:05:37;;;;;;;24.25;13.90;;;;;;;;;;5022787;28;20330;-87
2023/05/16 00:08:04;;;;;;;23.55;14.00;;;;;;;;;;5038563;28;20063;-87
2023/05/16 00:10:30;;;;;;;18.13;13.70;;;;;;;;;;5041114;28;20484;-87
2023/05/16 00:12:56;;;;;;;25.50;13.82;;;;;;;;;;5040167;28;20053;-86
2023/05/16 00:15:23;;;;;;;17.33;13.50;;;;;;;;;;5038774;28;20064;-88
2023/05/16 00:20:53;;;;;;;18.15;12.45;;;;;;;;;;5040101;28;20028;-86
2023/05/16 00:23:19;;;;;;;17.67;13.15;;;;;;;;;;5053408;28;20025;-86
2023/05/16 00:25:46;;;;;;;18.13;13.65;;;;;;;;;;5072719;28;20103;-86
2023/05/16 00:28:12;;;;;;;22.10;12.93;;;;;;;;;;5047677;28;20305;-87
2023/05/16 00:30:38;;;;;;;18.45;12.95;;;;;;;;;;5041692;28;20033;-87
2023/05/16 00:33:04;;;;;;;21.02;13.35;;;;;;;;;;5048874;28;20029;-87
2023/05/16 00:35:30;;;;;;;19.90;13.20;;;;;;;;;;5059941;28;20025;-88
2023/05/16 00:37:56;;;;;;;22.13;12.43;;;;;;;;;;5059590;28;20039;-88
2023/05/16 00:40:22;;;;;;;21.33;13.10;;;;;;;;;;5059682;28;20025;-88
2023/05/16 00:42:48;;;;;;;29.98;14.18;;;;;;;;;;5059309;28;20032;-87
2023/05/16 00:45:15;;;;;;;16.30;13.52;;;;;;;;;;5059745;28;20025;-88
2023/05/16 00:47:41;;;;;;;22.90;14.60;;;;;;;;;;5059754;28;20017;-89
2023/05/16 00:50:07;;;;;;;23.27;14.80;;;;;;;;;;5059358;28;20032;-88
2023/05/16 00:52:33;;;;;;;22.35;13.93;;;;;;;;;;5058439;28;20068;-87
2023/05/16 00:55:00;;;;;;;20.05;14.45;;;;;;;;;;5058596;28;20074;-87
2023/05/16 00:57:26;;;;;;;24.30;14.90;;;;;;;;;;5058017;28;20041;-87
2023/05/16 00:59:52;;;;;;;24.55;15.10;;;;;;;;;;5058338;28;20071;-87
2023/05/16 01:02:19;;;;;;;23.95;15.27;;;;;;;;;;5060748;28;20173;-86
2023/05/16 01:04:47;;;;;;;20.08;15.25;;;;;;;;;;5075970;28;20033;-85
2023/05/16 01:07:13;;;;;;;19.50;14.25;;;;;;;;;;5058922;28;20063;-86
2023/05/16 01:09:39;;;;;;;22.45;15.30;;;;;;;;;;5058990;28;20021;-86
2023/05/16 01:12:12;;;;;;;20.80;14.52;;;;;;;;;;5055114;28;20489;-86
2023/05/16 01:14:43;;;;;;;23.48;14.93;;;;;;;;;;5058509;28;20146;-85
2023/05/16 01:17:47;;;;;;;29.48;15.77;;;;;;;;;;5059015;28;20017;-86
2023/05/16 01:20:14;;;;;;;20.60;15.82;;;;;;;;;;5051249;28;20057;-85
2023/05/16 01:22:46;;;;;;;22.58;16.20;;;;;;;;;;5053605;28;20024;-85
2023/05/16 01:25:29;;;;;;;25.90;16.20;;;;;;;;;;5052432;28;20041;-86
2023/05/16 01:27:57;;;;;;;24.13;15.80;;;;;;;;;;5039077;28;20049;-86
2023/05/16 01:30:23;;;;;;;23.88;16.73;;;;;;;;;;5037826;28;20025;-86
2023/05/16 01:32:50;;;;;;;23.60;16.30;;;;;;;;;;5038598;28;20087;-86
2023/05/16 01:35:16;;;;;;;24.17;17.48;;;;;;;;;;5038511;28;20032;-89
2023/05/16 01:38:03;;;;;;;23.35;17.30;;;;;;;;;;5038795;28;20033;-87
2023/05/16 01:40:33;;;;;;;21.70;16.42;;;;;;;;;;5038319;28;20026;-87
2023/05/16 01:43:00;;;;;;;23.20;17.15;;;;;;;;;;5037459;28;20032;-87
2023/05/16 01:45:29;;;;;;;24.33;17.10;;;;;;;;;;5037479;28;20438;-87
2023/05/16 01:47:58;;;;;;;23.73;18.23;;;;;;;;;;5038589;28;20021;-87
2023/05/16 01:50:25;;;;;;;25.67;18.85;;;;;;;;;;5038539;28;20022;-87
2023/05/16 01:53:06;;;;;;;24.00;18.98;;;;;;;;;;5038021;28;20021;-87
2023/05/16 01:55:39;;;;;;;24.25;19.73;;;;;;;;;;5038251;28;20045;-87
2023/05/16 01:58:07;;;;;;;24.67;19.83;;;;;;;;;;5038476;28;20022;-87
2023/05/16 02:00:33;;;;;;;27.67;20.25;;;;;;;;;;5037084;28;20319;-86
2023/05/16 02:06:03;;;;;;;25.65;20.67;;;;;;;;;;5070991;28;20099;-87
2023/05/16 02:08:30;;;;;;;27.33;21.45;;;;;;;;;;5077768;28;20090;-87
2023/05/16 02:10:56;;;;;;;26.90;21.65;;;;;;;;;;5077435;28;20024;-86
2023/05/16 02:13:22;;;;;;;27.75;21.55;;;;;;;;;;5077782;28;20024;-86
2023/05/16 02:15:48;;;;;;;27.60;21.20;;;;;;;;;;5055290;28;20079;-86
2023/05/16 02:18:51;;;;;;;29.27;21.85;;;;;;;;;;5037887;28;20028;-86
2023/05/16 02:21:17;;;;;;;27.58;22.55;;;;;;;;;;5037496;28;20037;-87
2023/05/16 02:23:43;;;;;;;29.10;22.85;;;;;;;;;;5050354;28;20032;-85
2023/05/16 02:26:09;;;;;;;26.85;23.17;;;;;;;;;;5056571;28;20411;-86
2023/05/16 02:28:35;;;;;;;29.67;22.40;;;;;;;;;;5057603;28;20142;-85
2023/05/16 02:31:02;;;;;;;28.92;22.15;;;;;;;;;;5056446;28;20029;-86
2023/05/16 02:36:33;;;;;;;28.63;22.95;;;;;;;;;;5057709;28;20032;-85
2023/05/16 02:38:59;;;;;;;30.33;23.40;;;;;;;;;;5057740;28;20322;-85
2023/05/16 02:41:25;;;;;;;31.75;23.08;;;;;;;;;;5053163;28;20032;-86
2023/05/16 02:43:51;;;;;;;30.60;21.90;;;;;;;;;;5036105;28;20034;-85
2023/05/16 02:46:30;;;;;;;29.42;21.63;;;;;;;;;;5056319;28;20033;-86
2023/05/16 02:52:00;;;;;;;32.40;21.02;;;;;;;;;;5037672;28;20080;-86
2023/05/16 02:54:26;;;;;;;28.23;21.90;;;;;;;;;;5037428;28;20045;-86
2023/05/16 02:56:52;;;;;;;37.22;23.73;;;;;;;;;;5037890;28;20029;-86
2023/05/16 02:59:19;;;;;;;31.40;22.10;;;;;;;;;;5036420;28;20026;-86
2023/05/16 03:08:51;;;;;;;36.50;21.48;;;;;;;;;;5034545;28;20049;-86
2023/05/16 03:11:23;;;;;;;29.13;20.33;;;;;;;;;;5057161;28;20037;-86
2023/05/16 03:13:49;;;;;;;;;;;;;;;;;;5041959;28;20024;-85
2023/05/16 03:16:15;;;;;;;31.08;20.45;;;;;;;;;;5049359;28;19905;-88
2023/05/16 03:18:42;;;;;;;26.65;19.02;;;;;;;;;;5036607;28;20042;-87
2023/05/16 03:21:08;;;;;;;27.08;18.98;;;;;;;;;;5037687;28;20032;-89
2023/05/16 03:23:34;;;;;;;27.30;19.98;;;;;;;;;;5037143;28;20068;-87
2023/05/16 03:26:00;;;;;;;25.75;19.42;;;;;;;;;;5037151;28;20113;-88
2023/05/16 03:28:26;;;;;;;30.80;18.50;;;;;;;;;;5053262;28;20071;-88
2023/05/16 03:30:52;;;;;;;28.63;19.23;;;;;;;;;;5038504;28;20120;-88
2023/05/16 03:33:19;;;;;;;25.92;17.52;;;;;;;;;;5045904;28;20044;-89
2023/05/16 03:35:45;;;;;;;27.67;18.30;;;;;;;;;;5057176;28;20028;-84
2023/05/16 03:38:11;;;;;;;27.05;17.42;;;;;;;;;;5058382;28;20067;-87
2023/05/16 03:40:38;;;;;;;30.25;17.25;;;;;;;;;;5062219;28;20032;-85
2023/05/16 03:43:04;;;;;;;25.90;16.70;;;;;;;;;;5056531;28;20029;-85
2023/05/16 03:45:30;;;;;;;30.73;16.88;;;;;;;;;;5060193;28;20030;-85
2023/05/16 03:47:57;;;;;;;27.00;17.80;;;;;;;;;;5058231;28;20028;-85
2023/05/16 03:50:23;;;;;;;23.75;17.10;;;;;;;;;;5060735;28;20108;-87
2023/05/16 03:52:49;;;;;;;24.50;17.20;;;;;;;;;;5060638;28;20032;-87
2023/05/16 03:55:15;;;;;;;26.65;15.68;;;;;;;;;;5060641;28;20028;-89
2023/05/16 03:57:41;;;;;;;27.52;16.10;;;;;;;;;;5060663;28;20145;-88
2023/05/16 04:00:09;;;;;;;23.70;15.52;;;;;;;;;;5060366;28;20040;-89
2023/05/16 04:09:09;;;;;;;31.20;15.18;;;;;;;;;;5037458;28;20041;-88
2023/05/16 04:11:37;;;;;;;22.73;14.50;;;;;;;;;;5039043;28;20120;-89
2023/05/16 04:14:03;;;;;;;27.30;15.05;;;;;;;;;;5038888;28;20034;-88
2023/05/16 04:16:29;;;;;;;25.00;15.43;;;;;;;;;;5039154;28;20036;-88
2023/05/16 04:19:32;;;;;;;28.98;15.95;;;;;;;;;;5040125;28;20033;-89
2023/05/16 04:21:58;;;;;;;20.65;14.38;;;;;;;;;;5039109;28;20075;-86
2023/05/16 04:24:27;;;;;;;23.33;14.40;;;;;;;;;;5039033;28;20022;-87
2023/05/16 04:26:54;;;;;;;21.85;14.63;;;;;;;;;;5045092;28;20036;-86
2023/05/16 04:29:20;;;;;;;22.50;14.50;;;;;;;;;;5071512;28;20070;-86
2023/05/16 04:31:47;;;;;;;25.63;15.98;;;;;;;;;;5080170;28;20025;-87
2023/05/16 04:37:30;;;;;;;28.27;14.70;;;;;;;;;;5080018;28;20133;-86
2023/05/16 04:39:57;;;;;;;22.65;15.35;;;;;;;;;;5078726;28;20111;-87
2023/05/16 04:42:23;;;;;;;20.38;14.27;;;;;;;;;;5079493;28;20032;-89
2023/05/16 04:44:49;;;;;;;24.75;15.30;;;;;;;;;;5079541;28;20028;-89
2023/05/16 04:47:15;;;;;;;22.63;14.55;;;;;;;;;;5079773;28;20024;-89
2023/05/16 04:55:48;;;;;;;22.15;14.85;;;;;;;;;;5058477;28;20024;-89
2023/05/16 04:58:14;;;;;;;24.23;14.82;;;;;;;;;;5059318;28;20454;-89
2023/05/16 05:00:41;;;;;;;21.35;15.48;;;;;;;;;;5058176;28;20025;-87
2023/05/16 05:03:27;;;;;;;22.60;14.95;;;;;;;;;;5059264;28;20036;-87
2023/05/16 05:05:53;;;;;;;22.67;14.35;;;;;;;;;;5058959;28;20411;-86
2023/05/16 05:08:19;;;;;;;22.48;15.50;;;;;;;;;;5059457;28;20017;-86
2023/05/16 05:10:45;;;;;;;22.73;16.15;;;;;;;;;;5058821;28;20045;-87
2023/05/16 05:13:11;;;;;;;24.30;15.02;;;;;;;;;;5059260;28;20044;-88
2023/05/16 05:15:37;;;;;;;25.60;15.43;;;;;;;;;;5059141;28;20105;-88
2023/05/16 05:18:03;;;;;;;21.70;15.75;;;;;;;;;;5058072;28;20025;-86
2023/05/16 05:20:29;;;;;;;26.80;15.05;;;;;;;;;;5068540;28;20433;-85
2023/05/16 05:22:55;;;;;;;22.10;14.82;;;;;;;;;;5078808;28;20031;-85
2023/05/16 05:25:21;;;;;;;20.13;14.65;;;;;;;;;;5078576;28;20059;-85
2023/05/16 05:27:47;;;;;;;23.73;14.85;;;;;;;;;;5078641;28;20115;-85
2023/05/16 05:30:14;;;;;;;21.08;13.90;;;;;;;;;;5038677;28;20045;-85
2023/05/16 05:32:49;;;;;;;22.48;13.35;;;;;;;;;;5038443;28;20021;-86
2023/05/16 05:35:15;;;;;;;20.45;13.75;;;;;;;;;;5038764;28;20040;-84
2023/05/16 05:37:41;;;;;;;22.63;13.13;;;;;;;;;;5038697;28;20308;-85
2023/05/16 05:40:07;;;;;;;21.58;13.85;;;;;;;;;;5038378;28;20038;-84
2023/05/16 05:42:34;;;;;;;19.17;12.43;;;;;;;;;;5037229;28;20037;-85
2023/05/16 05:45:00;;;;;;;15.43;11.77;;;;;;;;;;5038357;28;20018;-84
2023/05/16 05:47:26;;;;;;;20.13;12.20;;;;;;;;;;5037206;28;20112;-84
2023/05/16 05:49:52;;;;;;;17.77;12.15;;;;;;;;;;5054940;28;20025;-85
2023/05/16 05:52:18;;;;;;;19.67;11.85;;;;;;;;;;5058427;28;20296;-84
2023/05/16 05:54:44;;;;;;;20.38;11.75;;;;;;;;;;5058002;28;20403;-84
2023/05/16 05:57:10;;;;;;;18.02;11.80;;;;;;;;;;5069343;28;20119;-86
2023/05/16 05:59:36;;;;;;;16.40;10.55;;;;;;;;;;5058437;28;20126;-86
2023/05/16 06:02:02;;;;;;;17.23;9.93;;;;;;;;;;5057196;28;20028;-86
2023/05/16 06:07:44;;;;;;;16.92;9.57;;;;;;;;;;5057668;28;20047;-87
2023/05/16 06:10:10;;;;;;;20.92;10.63;;;;;;;;;;5056975;28;20068;-88
2023/05/16 06:12:36;;;;;;;21.35;9.52;;;;;;;;;;5057032;28;20067;-87
2023/05/16 06:15:03;;;;;;;14.50;9.73;;;;;;;;;;5058096;28;20025;-87
2023/05/16 06:17:29;;;;;;;15.40;10.05;;;;;;;;;;5075193;28;20033;-87
2023/05/16 06:20:32;;;;;;;18.33;11.20;;;;;;;;;;5077950;28;20295;-87
2023/05/16 06:22:58;;;;;;;16.00;10.63;;;;;;;;;;5077568;28;20029;-87
2023/05/16 06:25:24;;;;;;;15.55;9.02;;;;;;;;;;5078057;28;20033;-87
2023/05/16 06:27:50;;;;;;;15.70;9.35;;;;;;;;;;5073177;28;20025;-87
2023/05/16 06:30:16;;;;;;;13.48;9.25;;;;;;;;;;5057829;28;20300;-87
2023/05/16 06:32:42;;;;;;;17.02;9.43;;;;;;;;;;5067053;28;20406;-87
2023/05/16 06:35:09;;;;;;;13.75;8.95;;;;;;;;;;5077993;28;20028;-86
2023/05/16 06:37:35;;;;;;;15.63;8.45;;;;;;;;;;5076965;28;20021;-87
2023/05/16 06:40:01;;;;;;;14.90;9.05;;;;;;;;;;5076721;28;20032;-87
2023/05/16 06:42:27;;;;;;;16.42;9.27;;;;;;;;;;5077452;28;20033;-86
2023/05/16 06:44:53;;;;;;;15.50;8.77;;;;;;;;;;5076509;28;20028;-88
2023/05/16 06:47:20;;;;;;;19.95;9.75;;;;;;;;;;5077562;28;20025;-88
2023/05/16 06:49:46;;;;;;;21.38;9.88;;;;;;;;;;5077244;28;20036;-85
2023/05/16 06:52:12;;;;;;;20.80;10.52;;;;;;;;;;5063497;28;20040;-87
2023/05/16 06:54:38;;;;;;;20.92;10.48;;;;;;;;;;5072207;28;20426;-86
2023/05/16 06:57:05;;;;;;;17.45;10.32;;;;;;;;;;5057419;28;20055;-85
2023/05/16 06:59:31;;;;;;;17.52;9.90;;;;;;;;;;5057569;28;20033;-87
2023/05/16 07:01:57;;;;;;;15.38;9.38;;;;;;;;;;5072459;28;20116;-89
2023/05/16 07:04:24;;;;;;;14.70;9.63;;;;;;;;;;5057902;28;20075;-87
2023/05/16 07:06:50;;;;;;;18.40;10.00;;;;;;;;;;5057512;28;20036;-87
2023/05/16 07:09:16;;;;;;;15.43;9.82;;;;;;;;;;5057137;28;20017;-86
2023/05/16 07:11:42;;;;;;;17.17;10.05;;;;;;;;;;5064583;28;20104;-88
2023/05/16 07:14:08;;;;;;;15.80;9.52;;;;;;;;;;5062772;28;20052;-87
2023/05/16 07:16:35;;;;;;;15.43;8.70;;;;;;;;;;5057507;28;20036;-86
2023/05/16 07:22:42;;;;;;;16.15;8.38;;;;;;;;;;5061062;28;20047;-87
2023/05/16 07:25:11;;;;;;;12.18;8.43;;;;;;;;;;5060668;28;20063;-85
2023/05/16 07:27:40;;;;;;;15.63;9.35;;;;;;;;;;5060952;28;20044;-84
2023/05/16 07:30:06;;;;;;;21.80;9.52;;;;;;;;;;5060781;28;20028;-87
2023/05/16 07:32:33;;;;;;;16.77;9.35;;;;;;;;;;5061119;28;20094;-87
2023/05/16 07:34:59;;;;;;;20.98;13.52;;;;;;;;;;5059800;28;20029;-84
2023/05/16 07:37:25;;;;;;;16.02;11.70;;;;;;;;;;5068372;28;20334;-85
2023/05/16 07:39:51;;;;;;;17.65;9.57;;;;;;;;;;5064335;28;20033;-88
2023/05/16 07:42:17;;;;;;;18.70;9.20;;;;;;;;;;5072866;28;20437;-89
2023/05/16 07:44:44;;;;;;;20.30;9.10;;;;;;;;;;5069954;28;20025;-87
2023/05/16 07:47:10;;;;;;;16.25;9.05;;;;;;;;;;5080281;28;20032;-86
2023/05/16 07:49:36;;;;;;;16.38;9.02;;;;;;;;;;5080566;28;20048;-85
2023/05/16 07:52:02;;;;;;;17.00;10.90;;;;;;;;;;5066067;28;20075;-85
2023/05/16 07:54:28;;;;;;;15.55;10.15;;;;;;;;;;5060952;28;20044;-87
2023/05/16 07:56:54;;;;;;;17.25;10.90;;;;;;;;;;5061661;28;20092;-87
2023/05/16 07:59:20;;;;;;;20.25;10.70;;;;;;;;;;5059417;28;20029;-86
2023/05/16 08:01:46;;;;;;;19.52;10.20;;;;;;;;;;5060420;28;20032;-89
2023/05/16 08:04:13;;;;;;;15.25;8.93;;;;;;;;;;5060265;28;20473;-87
2023/05/16 08:06:39;;;;;;;15.45;8.98;;;;;;;;;;5060383;28;20033;-87
2023/05/16 08:09:05;;;;;;;17.02;9.63;;;;;;;;;;5059932;28;20025;-86
2023/05/16 08:11:31;;;;;;;17.20;8.55;;;;;;;;;;5060045;28;20052;-87
2023/05/16 08:13:57;;;;;;;15.90;8.80;;;;;;;;;;5060458;28;20033;-87
2023/05/16 08:16:23;;;;;;;16.90;9.65;;;;;;;;;;5060499;28;20027;-87
2023/05/16 08:18:49;;;;;;;15.75;8.50;;;;;;;;;;5059155;28;20509;-87
2023/05/16 08:21:15;;;;;;;14.45;9.20;;;;;;;;;;5060048;28;20055;-87
2023/05/16 08:23:42;;;;;;;20.65;10.20;;;;;;;;;;5059434;28;20026;-87
2023/05/16 08:26:08;;;;;;;26.88;11.30;;;;;;;;;;5059998;28;20082;-86
2023/05/16 08:28:34;;;;;;;16.45;9.98;;;;;;;;;;5060094;28;20029;-87
2023/05/16 08:31:00;;;;;;;18.67;10.02;;;;;;;;;;5059947;28;20024;-86
2023/05/16 08:33:26;;;;;;;17.52;10.30;;;;;;;;;;5059823;28;20036;-87
2023/05/16 08:35:53;;;;;;;19.73;10.93;;;;;;;;;;5059684;28;20033;-86
2023/05/16 08:38:19;;;;;;;20.15;10.70;;;;;;;;;;5058741;28;20025;-88
2023/05/16 08:40:45;;;;;;;16.15;9.65;;;;;;;;;;5058642;28;20486;-87
2023/05/16 08:43:12;;;;;;;14.82;9.88;;;;;;;;;;5059783;28;20040;-87
2023/05/16 08:45:39;;;;;;;15.30;9.75;;;;;;;;;;5059675;28;20045;-87
2023/05/16 08:48:06;;;;;;;14.10;10.25;;;;;;;;;;5059532;28;20027;-89
2023/05/16 08:50:32;;;;;;;15.85;9.85;;;;;;;;;;5059546;28;20025;-87
2023/05/16 08:53:05;;;;;;;17.35;11.30;;;;;;;;;;5058108;28;20135;-87
2023/05/16 08:55:31;;;;;;;13.07;10.23;;;;;;;;;;5058308;28;20025;-88
2023/05/16 08:57:57;;;;;;;14.82;10.45;;;;;;;;;;5058385;28;20032;-88
2023/05/16 09:00:24;;;;;;;20.88;11.77;;;;;;;;;;5058500;28;20066;-83
2023/05/16 09:02:50;;;;;;;18.92;10.73;;;;;;;;;;5059328;28;20049;-88
2023/05/16 09:05:17;;;;;;;16.42;11.48;;;;;;;;;;5059666;28;20028;-92
2023/05/16 09:07:44;;;;;;;15.10;9.45;;;;;;;;;;5058749;28;20017;-84
2023/05/16 09:10:10;;;;;;;13.63;9.40;;;;;;;;;;5059532;28;20033;-83
2023/05/16 09:12:37;;;;;;;17.02;10.30;;;;;;;;;;5057652;28;20166;-84
2023/05/16 09:15:03;;;;;;;17.52;9.98;;;;;;;;;;5058761;28;20029;-85
2023/05/16 09:17:37;;;;;;;15.13;9.30;;;;;;;;;;5059004;28;20044;-89
2023/05/16 09:20:11;;;;;;;12.07;8.35;;;;;;;;;;5059611;28;20414;-86
2023/05/16 09:22:37;;;;;;;10.63;8.82;;;;;;;;;;5058798;28;20059;-86
2023/05/16 09:25:03;;;;;;;15.93;9.73;;;;;;;;;;5058593;28;20024;-82
2023/05/16 09:27:33;;;;;;;16.85;9.98;;;;;;;;;;5058418;28;20434;-86
2023/05/16 09:29:59;;;;;;;13.38;7.78;;;;;;;;;;5068476;28;20434;-84
2023/05/16 09:32:25;;;;;;;16.00;7.85;;;;;;;;;;5064047;28;20040;-87
2023/05/16 09:34:53;;;;;;;17.52;9.10;;;;;;;;;;5058352;28;20033;-87
2023/05/16 09:37:19;;;;;;;12.95;8.13;;;;;;;;;;5057711;28;20411;-86
2023/05/16 09:39:49;;;;;;;11.07;7.78;;;;;;;;;;5061350;28;20028;-86
2023/05/16 09:42:15;;;;;;;14.65;8.55;;;;;;;;;;5059690;28;20028;-92
2023/05/16 09:44:46;;;;;;;10.57;7.30;;;;;;;;;;5057438;28;20032;-91
2023/05/16 09:47:15;;;;;;;11.60;8.03;;;;;;;;;;5057739;28;20032;-92
2023/05/16 09:52:48;;;;;;;13.05;8.63;;;;;;;;;;5072787;28;20414;-93
2023/05/16 09:55:14;;;;;;;12.77;8.55;;;;;;;;;;5059442;28;20151;-93
2023/05/16 09:57:40;;;;;;;15.90;8.20;;;;;;;;;;5072864;28;20016;-91
2023/05/16 10:00:09;;;;;;;13.20;8.50;;;;;;;;;;5067506;28;20040;-92
2023/05/16 10:02:35;;;;;;;13.25;7.88;;;;;;;;;;5073482;28;20028;-92
2023/05/16 10:05:01;;;;;;;15.07;7.22;;;;;;;;;;5069434;28;20186;-93
2023/05/16 10:07:28;;;;;;;15.65;8.00;;;;;;;;;;5065714;28;20111;-94
2023/05/16 10:09:55;;;;;;;16.30;9.05;;;;;;;;;;5080161;28;20382;-95
2023/05/16 10:12:26;;;;;;;31.08;19.17;;;;;;;;;;5068602;28;20024;-90
2023/05/16 10:14:52;;;;;;;;;;;;;;;;;;5059473;28;20127;-89
2023/05/16 10:17:19;;;;;;;13.88;8.43;;;;;;;;;;5074587;28;20218;-84
2023/05/16 10:19:46;;;;;;;17.90;7.53;;;;;;;;;;5070645;28;20072;-94
2023/05/16 10:22:13;;;;;;;17.00;8.35;;;;;;;;;;5057099;28;20061;-93
2023/05/16 10:24:44;;;;;;;12.05;8.18;;;;;;;;;;5058338;28;20096;-94
2023/05/16 10:27:10;;;;;;;9.97;8.00;;;;;;;;;;5058036;28;20025;-93
2023/05/16 10:29:37;;;;;;;16.25;8.00;;;;;;;;;;5056764;28;20021;-92
2023/05/16 10:32:03;;;;;;;16.38;8.80;;;;;;;;;;5057621;28;20024;-91
2023/05/16 10:34:31;;;;;;;8.63;7.53;;;;;;;;;;5056373;28;20036;-92
2023/05/16 10:36:58;;;;;;;11.57;7.75;;;;;;;;;;5056726;28;20063;-94
2023/05/16 10:39:24;;;;;;;12.93;7.00;;;;;;;;;;5057906;28;20025;-93
2023/05/16 10:41:50;;;;;;;10.73;7.80;;;;;;;;;;5057854;28;20035;-93
2023/05/16 10:44:17;;;;;;;12.48;8.13;;;;;;;;;;5057805;28;20028;-94
2023/05/16 10:46:43;;;;;;;16.55;8.13;;;;;;;;;;5056596;28;20017;-92
2023/05/16 10:49:22;;;;;;;10.25;8.00;;;;;;;;;;5057507;28;20099;-94
2023/05/16 10:52:05;;;;;;;15.15;8.15;;;;;;;;;;5056636;28;20029;-94
2023/05/16 10:54:42;;;;;;;11.25;7.63;;;;;;;;;;5060497;28;20146;-90
2023/05/16 10:57:10;;;;;;;12.38;7.80;;;;;;;;;;5061646;28;20029;-93
2023/05/16 10:59:40;;;;;;;13.52;6.60;;;;;;;;;;5062455;28;20040;-93
2023/05/16 11:02:21;;;;;;;14.27;8.75;;;;;;;;;;5060829;28;20357;-93
2023/05/16 11:04:54;;;;;;;10.82;7.30;;;;;;;;;;5061622;28;20047;-95
2023/05/16 11:07:21;;;;;;;14.65;7.45;;;;;;;;;;5061156;28;20446;-94
2023/05/16 11:10:02;;;;;;;11.65;7.65;;;;;;;;;;5061321;28;20045;-94
2023/05/16 11:12:36;;;;;;;12.80;8.27;;;;;;;;;;5063488;28;20108;-95
2023/05/16 11:15:16;;;;;;;12.60;7.90;;;;;;;;;;5062377;28;20266;-95
2023/05/16 11:17:42;;;;;;;12.80;7.10;;;;;;;;;;5062287;28;20025;-95
2023/05/16 11:20:24;;;;;;;10.25;8.27;;;;;;;;;;5063106;28;20036;-87
2023/05/16 11:22:50;;;;;;;12.18;7.25;;;;;;;;;;5060293;28;20037;-94
2023/05/16 11:25:16;;;;;;;13.05;7.88;;;;;;;;;;5061464;28;20045;-95
2023/05/16 11:27:44;;;;;;;14.82;8.55;;;;;;;;;;5061743;28;20021;-94
2023/05/16 11:30:10;;;;;;;12.88;8.70;;;;;;;;;;5060193;28;20029;-95
2023/05/16 11:32:37;;;;;;;12.57;8.48;;;;;;;;;;5060111;28;20036;-93
2023/05/16 11:35:04;;;;;;;23.25;14.50;;;;;;;;;;5061029;28;20415;-90
2023/05/16 11:37:30;;;;;;;12.50;7.15;;;;;;;;;;5060479;28;20029;-93
2023/05/16 11:40:03;;;;;;;12.70;7.43;;;;;;;;;;5060726;28;20031;-92
2023/05/16 11:42:30;;;;;;;13.13;7.53;;;;;;;;;;5059865;28;20044;-93
2023/05/16 11:45:24;;;;;;;14.55;7.20;;;;;;;;;;5060112;28;20053;-93
2023/05/16 11:47:50;;;;;;;14.20;8.32;;;;;;;;;;5059249;28;20036;-93
2023/05/16 11:50:16;;;;;;;13.65;8.10;;;;;;;;;;5061917;28;20315;-94
2023/05/16 11:52:43;;;;;;;14.88;7.50;;;;;;;;;;5062840;28;20033;-94
2023/05/16 11:55:10;;;;;;;13.20;8.27;;;;;;;;;;5061582;28;20074;-94
2023/05/16 11:57:40;;;;;;;19.70;8.35;;;;;;;;;;5063328;28;20036;-94
2023/05/16 12:00:17;;;;;;;14.30;8.20;;;;;;;;;;5061532;28;20021;-94
2023/05/16 12:02:49;;;;;;;12.95;7.30;;;;;;;;;;5062016;28;20036;-93
2023/05/16 12:05:16;;;;;;;14.70;8.90;;;;;;;;;;5062018;28;20028;-94
2023/05/16 12:07:43;;;;;;;15.25;8.48;;;;;;;;;;5062294;28;20025;-94
2023/05/16 12:10:11;;;;;;;13.85;7.80;;;;;;;;;;5061376;28;20041;-95
2023/05/16 12:12:38;;;;;;;13.30;9.02;;;;;;;;;;5060593;28;20043;-94
2023/05/16 12:15:08;;;;;;;11.18;7.90;;;;;;;;;;5060246;28;20074;-94
2023/05/16 12:17:38;;;;;;;11.60;7.45;;;;;;;;;;5060656;28;20053;-94
2023/05/16 12:20:05;;;;;;;12.15;7.65;;;;;;;;;;5062363;28;20117;-94
2023/05/16 12:22:32;;;;;;;13.02;7.28;;;;;;;;;;5066404;28;20036;-95
2023/05/16 12:25:17;;;;;;;15.50;7.13;;;;;;;;;;5057369;28;20036;-76
2023/05/16 12:27:43;;;;;;;11.52;7.50;;;;;;;;;;5059340;28;20427;-76
2023/05/16 12:30:09;;;;;;;16.48;7.38;;;;;;;;;;5059789;28;20032;-96
2023/05/16 12:32:38;;;;;;;14.18;8.32;;;;;;;;;;5058991;28;20098;-95
2023/05/16 12:35:05;;;;;;;15.25;7.32;;;;;;;;;;5051092;28;20076;-95
2023/05/16 12:37:31;;;;;;;13.25;7.88;;;;;;;;;;5055362;28;20029;-94
2023/05/16 12:40:00;;;;;;;15.63;8.73;;;;;;;;;;5058953;28;20317;-95
2023/05/16 12:42:26;;;;;;;12.40;8.65;;;;;;;;;;5049254;28;20072;-94
2023/05/16 12:44:56;;;;;;;16.83;8.40;;;;;;;;;;5039735;28;20311;-95
2023/05/16 12:47:22;;;;;;;15.88;9.27;;;;;;;;;;5039608;28;20079;-95
2023/05/16 12:49:53;;;;;;;16.83;8.93;;;;;;;;;;5058502;28;20319;-96
2023/05/16 12:52:20;;;;;;;17.05;9.30;;;;;;;;;;5069473;28;20082;-96
2023/05/16 12:54:46;;;;;;;12.32;8.82;;;;;;;;;;5079986;28;20115;-95
2023/05/16 12:57:12;;;;;;;17.65;9.52;;;;;;;;;;5079286;28;20056;-95
2023/05/16 12:59:38;;;;;;;18.88;9.80;;;;;;;;;;5078377;28;20027;-94
2023/05/16 13:02:04;;;;;;;14.63;9.63;;;;;;;;;;5079525;28;20032;-96
2023/05/16 13:04:31;;;;;;;13.88;9.88;;;;;;;;;;5063650;28;20033;-94
2023/05/16 13:06:57;;;;;;;14.88;10.13;;;;;;;;;;5059364;28;20056;-95
2023/05/16 13:09:23;;;;;;;23.50;10.35;;;;;;;;;;5069249;28;20029;-94
2023/05/16 13:11:49;;;;;;;17.50;11.30;;;;;;;;;;5062147;28;20057;-96
2023/05/16 13:14:19;;;;;;;13.27;10.27;;;;;;;;;;5077083;28;20024;-95
2023/05/16 13:16:46;;;;;;;15.65;10.48;;;;;;;;;;5085246;28;20032;-95
2023/05/16 13:19:12;;;;;;;20.77;11.75;;;;;;;;;;5079350;28;20021;-95
2023/05/16 13:21:40;;;;;;;16.30;12.15;;;;;;;;;;5062500;28;20045;-95
2023/05/16 13:24:06;;;;;;;18.17;10.15;;;;;;;;;;5057968;28;20075;-95
2023/05/16 13:26:32;;;;;;;16.75;10.20;;;;;;;;;;5050202;28;20052;-95
2023/05/16 13:29:00;;;;;;;14.82;9.80;;;;;;;;;;5054464;28;20357;-95
2023/05/16 13:31:27;;;;;;;15.52;10.23;;;;;;;;;;5059201;28;20032;-95
2023/05/16 13:38:00;;;;;;;16.92;10.52;;;;;;;;;;5059149;28;20059;-94
2023/05/16 13:40:28;;;;;;;20.23;11.43;;;;;;;;;;5077401;28;20101;-95
2023/05/16 13:42:54;;;;;;;17.25;10.57;;;;;;;;;;5051398;28;20040;-93
2023/05/16 13:45:20;;;;;;;14.75;10.55;;;;;;;;;;5038513;28;20025;-94
2023/05/16 13:47:46;;;;;;;18.00;9.80;;;;;;;;;;5058824;28;20100;-95
2023/05/16 13:50:12;;;;;;;18.67;10.88;;;;;;;;;;5058532;28;20021;-95
2023/05/16 13:52:39;;;;;;;16.33;10.98;;;;;;;;;;5058830;28;20025;-95
2023/05/16 13:55:05;;;;;;;17.88;11.57;;;;;;;;;;5058034;28;20025;-95
2023/05/16 13:57:35;;;;;;;17.98;10.93;;;;;;;;;;5062618;28;20035;-95
2023/05/16 14:00:01;;;;;;;15.35;9.75;;;;;;;;;;5078144;28;20059;-95
2023/05/16 14:02:27;;;;;;;20.17;10.60;;;;;;;;;;5058242;28;20025;-94
2023/05/16 14:04:53;;;;;;;16.45;10.80;;;;;;;;;;5040076;28;20059;-95
2023/05/16 14:07:19;;;;;;;16.85;11.38;;;;;;;;;;5057192;28;20052;-95
2023/05/16 14:09:45;;;;;;;25.85;11.07;;;;;;;;;;5057661;28;20431;-95
2023/05/16 14:12:13;;;;;;;22.45;11.48;;;;;;;;;;5037226;28;20049;-95
2023/05/16 14:14:39;;;;;;;17.90;10.05;;;;;;;;;;5037803;28;20036;-95
2023/05/16 14:17:06;;;;;;;17.65;10.38;;;;;;;;;;5037319;28;20025;-94
2023/05/16 14:19:33;;;;;;;14.80;9.02;;;;;;;;;;5072880;28;20067;-89
2023/05/16 14:21:59;;;;;;;17.15;7.80;;;;;;;;;;5057381;28;20053;-94
2023/05/16 14:24:25;;;;;;;16.90;6.82;;;;;;;;;;5058068;28;20017;-95
2023/05/16 14:26:54;;;;;;;13.60;8.48;;;;;;;;;;5057141;28;20021;-94
2023/05/16 14:29:20;;;;;;;14.57;8.23;;;;;;;;;;5058412;28;20029;-96
2023/05/16 14:31:46;;;;;;;19.45;7.82;;;;;;;;;;5058611;28;20025;-94
2023/05/16 14:40:35;;;;;;;12.65;6.70;;;;;;;;;;5067888;28;20090;-95
2023/05/16 14:43:03;;;;;;;17.13;7.50;;;;;;;;;;5078251;28;20418;-89
2023/05/16 14:45:29;;;;;;;16.63;6.97;;;;;;;;;;5051875;28;20017;-94
2023/05/16 14:47:55;;;;;;;14.50;7.18;;;;;;;;;;5056139;28;20047;-94
2023/05/16 14:53:40;;;;;;;14.60;6.88;;;;;;;;;;5061175;28;20081;-95
2023/05/16 14:56:06;;;;;;;16.88;7.40;;;;;;;;;;5056789;28;20025;-93
2023/05/16 14:58:32;;;;;;;16.30;6.90;;;;;;;;;;5058639;28;20147;-96
2023/05/16 15:00:58;;;;;;;11.90;7.35;;;;;;;;;;5055815;28;20314;-81
2023/05/16 15:03:24;;;;;;;19.67;9.63;;;;;;;;;;5058133;28;20419;-90
2023/05/16 15:12:11;;;;;;;20.73;5.50;;;;;;;;;;5024088;28;20096;-87
2023/05/16 15:14:38;;;;;;;14.32;6.00;;;;;;;;;;5036554;28;20030;-90
2023/05/16 15:17:04;;;;;;;17.02;6.55;;;;;;;;;;5052428;28;20024;-92
2023/05/16 15:19:30;;;;;;;20.92;6.63;;;;;;;;;;5058233;28;20030;-95
2023/05/16 15:21:56;;;;;;;12.90;6.57;;;;;;;;;;5057003;28;20056;-95
2023/05/16 15:24:22;;;;;;;16.98;8.77;;;;;;;;;;5055169;28;20319;-90
2023/05/16 15:26:49;;;;;;;18.55;8.32;;;;;;;;;;5057811;28;20032;-94
2023/05/16 15:29:15;;;;;;;15.18;8.63;;;;;;;;;;5058384;28;20418;-90
2023/05/16 15:31:41;;;;;;;15.77;10.32;;;;;;;;;;5056067;28;20341;-90
2023/05/16 15:34:07;;;;;;;17.50;7.15;;;;;;;;;;5056453;28;20017;-92